createdAt,value
2023-04-11T00:00:07.151Z,100947.13
2023-04-11T00:02:39.257Z,100950.78
2023-04-11T00:05:08.436Z,100962.22
2023-04-11T00:07:36.791Z,100963.41
2023-04-11T00:10:07.227Z,100957.31
2023-04-11T00:12:35.351Z,100957.59
2023-04-11T00:15:03.858Z,100964.91
2023-04-11T00:17:33.664Z,100949.53
2023-04-11T00:20:07.928Z,100948.69
2023-04-11T00:22:36.581Z,100953.91
2023-04-11T00:25:04.637Z,100950.97
2023-04-11T00:27:32.745Z,100954.06
2023-04-11T00:30:00.871Z,100968.81
2023-04-11T00:32:30.618Z,100946.44
2023-04-11T00:35:07.759Z,100981.19
2023-04-11T00:37:37.134Z,100981.09
2023-04-11T00:40:12.484Z,100985.16
2023-04-11T00:42:41.550Z,100977.38
2023-04-11T00:45:10.852Z,100973.38
2023-04-11T00:47:40.460Z,100971.47
2023-04-11T00:50:14.289Z,100981.31
2023-04-11T00:52:44.370Z,100967.50
2023-04-11T00:55:12.968Z,100970.44
2023-04-11T00:57:41.996Z,100960.50
2023-04-11T01:00:11.958Z,100967.91
2023-04-11T01:02:43.410Z,100957.00
2023-04-11T01:05:15.066Z,100939.53
2023-04-11T01:07:46.406Z,100946.19
2023-04-11T01:10:16.671Z,100950.34
2023-04-11T01:12:47.383Z,100942.81
2023-04-11T01:15:15.976Z,100956.28
2023-04-11T01:17:45.655Z,100955.94
2023-04-11T01:20:15.859Z,100963.69
2023-04-11T01:22:45.110Z,100952.25
2023-04-11T01:25:16.628Z,100945.69
2023-04-11T01:27:45.047Z,100974.91
2023-04-11T01:30:13.868Z,100953.72
2023-04-11T01:32:42.032Z,100937.78
2023-04-11T01:35:12.841Z,100948.13
2023-04-11T01:37:41.014Z,100938.88
2023-04-11T01:40:10.083Z,100936.44
2023-04-11T01:42:40.560Z,100937.38
2023-04-11T01:45:10.452Z,100934.84
2023-04-11T01:47:38.719Z,100930.19
2023-04-11T01:50:09.033Z,100930.81
2023-04-11T01:52:37.550Z,100931.41
2023-04-11T01:55:06.260Z,100940.91
2023-04-11T01:57:34.316Z,100947.56
2023-04-11T02:00:05.964Z,100958.50
2023-04-11T02:02:34.031Z,100945.97
2023-04-11T02:05:02.102Z,100954.84
2023-04-11T02:07:30.330Z,100940.63
2023-04-11T02:09:59.222Z,100958.50
2023-04-11T02:12:27.433Z,100952.19
2023-04-11T02:14:55.474Z,100953.03
2023-04-11T02:17:25.918Z,100944.28
2023-04-11T02:19:54.899Z,100940.47
2023-04-11T02:22:23.069Z,100936.84
2023-04-11T02:24:51.364Z,100929.53
2023-04-11T02:27:19.613Z,100933.19
2023-04-11T02:29:47.599Z,100931.97
2023-04-11T02:32:15.701Z,100928.16
2023-04-11T02:34:45.278Z,100933.53
2023-04-11T02:37:13.358Z,100934.38
2023-04-11T02:39:41.437Z,100928.31
2023-04-11T02:42:09.407Z,100929.00
2023-04-11T02:44:37.446Z,100936.09
2023-04-11T02:47:05.623Z,100930.59
2023-04-11T02:49:33.691Z,100925.84
2023-04-11T02:52:03.242Z,100919.50
2023-04-11T02:54:31.278Z,100929.09
2023-04-11T02:56:59.341Z,100913.75
2023-04-11T02:59:27.392Z,100922.41
2023-04-11T03:01:59.673Z,100925.53
2023-04-11T03:04:28.033Z,100931.13
2023-04-11T03:06:56.741Z,100920.56
2023-04-11T03:09:26.472Z,100910.56
2023-04-11T03:11:54.472Z,100912.16
2023-04-11T03:14:23.077Z,100908.59
2023-04-11T03:16:51.228Z,100906.66
2023-04-11T03:19:19.704Z,100904.69
2023-04-11T03:21:47.662Z,100897.94
2023-04-11T03:24:15.728Z,100896.72
2023-04-11T03:26:45.128Z,100898.28
2023-04-11T03:29:13.111Z,100883.69
2023-04-11T03:31:41.416Z,100894.56
2023-04-11T03:34:09.481Z,100888.34
2023-04-11T03:36:37.589Z,100884.94
2023-04-11T03:39:06.283Z,100877.03
2023-04-11T03:41:34.394Z,100864.19
2023-04-11T03:44:04.493Z,100857.25
2023-04-11T03:46:32.701Z,100870.78
2023-04-11T03:49:01.250Z,100863.72
2023-04-11T03:51:29.446Z,100855.94
2023-04-11T03:53:57.725Z,100855.69
2023-04-11T03:56:25.763Z,100854.69
2023-04-11T03:58:54.008Z,100863.19
2023-04-11T04:01:23.765Z,100874.13
2023-04-11T04:03:52.209Z,100863.94
2023-04-11T04:06:20.284Z,100860.00
2023-04-11T04:08:48.261Z,100858.69
2023-04-11T04:11:16.208Z,100856.88
2023-04-11T04:13:44.533Z,100873.66
2023-04-11T04:16:12.666Z,100873.41
2023-04-11T04:18:42.275Z,100881.41
2023-04-11T04:21:10.414Z,100883.47
2023-04-11T04:23:39.466Z,100870.88
2023-04-11T04:26:07.955Z,100875.94
2023-04-11T04:28:35.954Z,100861.38
2023-04-11T04:31:04.188Z,100866.50
2023-04-11T04:33:33.265Z,100867.69
2023-04-11T04:36:04.411Z,100870.84
2023-04-11T04:38:33.654Z,100883.34
2023-04-11T04:41:02.117Z,100865.50
2023-04-11T04:43:36.068Z,100865.13
2023-04-11T04:46:10.434Z,100864.59
2023-04-11T04:48:39.305Z,100864.56
2023-04-11T04:51:09.468Z,100862.41
2023-04-11T04:53:39.108Z,100874.28
2023-04-11T04:56:08.132Z,100872.91
2023-04-11T04:58:36.146Z,100880.69
2023-04-11T05:01:04.263Z,100868.63
2023-04-11T05:03:36.316Z,100863.16
2023-04-11T05:06:06.602Z,100869.00
2023-04-11T05:08:37.549Z,100857.28
2023-04-11T05:11:06.287Z,100860.56
2023-04-11T05:13:36.072Z,100847.44
2023-04-11T05:16:04.516Z,100839.66
2023-04-11T05:18:33.036Z,100846.22
2023-04-11T05:21:02.709Z,100841.63
2023-04-11T05:23:30.837Z,100836.13
2023-04-11T05:26:01.319Z,100842.94
2023-04-11T05:28:29.431Z,100831.97
2023-04-11T05:30:57.600Z,100829.28
2023-04-11T05:33:32.022Z,100827.19
2023-04-11T05:36:00.508Z,100834.38
2023-04-11T05:38:29.377Z,100831.69
2023-04-11T05:40:57.963Z,100836.81
2023-04-11T05:43:27.679Z,100837.50
2023-04-11T05:45:56.123Z,100824.13
2023-04-11T05:48:24.277Z,100824.31
2023-04-11T05:50:53.265Z,100814.47
2023-04-11T05:53:21.367Z,100817.34
2023-04-11T05:55:49.454Z,100808.78
2023-04-11T05:58:17.527Z,100821.78
2023-04-11T06:00:47.393Z,100813.50
2023-04-11T06:03:15.792Z,100815.88
2023-04-11T06:05:44.378Z,100813.94
2023-04-11T06:08:12.670Z,100821.59
2023-04-11T06:10:41.072Z,100824.38
2023-04-11T06:13:09.543Z,100818.03
2023-04-11T06:15:39.691Z,100822.44
2023-04-11T06:18:11.891Z,100818.16
2023-04-11T06:20:40.205Z,100826.34
2023-04-11T06:23:08.811Z,100818.56
2023-04-11T06:25:37.083Z,100822.69
2023-04-11T06:28:05.837Z,100822.28
2023-04-11T06:30:34.750Z,100824.56
2023-04-11T06:33:03.308Z,100838.84
2023-04-11T06:35:32.952Z,100834.78
2023-04-11T06:38:01.103Z,100842.44
2023-04-11T06:40:29.850Z,100834.25
2023-04-11T06:43:00.826Z,100835.56
2023-04-11T06:45:39.357Z,100829.41
2023-04-11T06:48:13.768Z,100815.75
2023-04-11T06:50:43.618Z,100833.09
2023-04-11T06:53:11.911Z,100829.03
2023-04-11T06:55:40.076Z,100818.59
2023-04-11T06:58:08.115Z,100812.78
2023-04-11T07:00:39.117Z,100806.19
2023-04-11T07:03:08.941Z,100806.69
2023-04-11T07:05:39.532Z,100814.88
2023-04-11T07:08:09.510Z,100817.44
2023-04-11T07:10:37.530Z,100825.47
2023-04-11T07:13:06.232Z,100805.59
2023-04-11T07:15:34.298Z,100803.63
2023-04-11T07:18:02.984Z,100805.19
2023-04-11T07:20:33.136Z,100801.09
2023-04-11T07:23:03.218Z,100797.72
2023-04-11T07:25:33.812Z,100801.31
2023-04-11T07:28:02.124Z,100800.88
2023-04-11T07:30:30.274Z,100797.06
2023-04-11T07:32:58.391Z,100802.44
2023-04-11T07:35:26.486Z,100793.28
2023-04-11T07:37:54.583Z,100788.34
2023-04-11T07:40:22.930Z,100792.56
2023-04-11T07:42:52.709Z,100789.31
2023-04-11T07:45:21.406Z,100792.56
2023-04-11T07:47:52.160Z,100780.72
2023-04-11T07:50:21.502Z,100770.66
2023-04-11T07:52:51.404Z,100762.47
2023-04-11T07:55:20.000Z,100763.88
2023-04-11T07:57:51.095Z,100762.75
2023-04-11T08:00:25.161Z,100761.75
2023-04-11T08:02:53.481Z,100749.03
2023-04-11T08:05:21.931Z,100748.59
2023-04-11T08:07:54.436Z,100733.63
2023-04-11T08:10:22.484Z,100750.16
2023-04-11T08:12:50.783Z,100743.94
2023-04-11T08:15:19.013Z,100747.56
2023-04-11T08:17:50.535Z,100748.72
2023-04-11T08:20:21.660Z,100758.63
2023-04-11T08:22:49.947Z,100756.63
2023-04-11T08:25:20.094Z,100741.97
2023-04-11T08:27:48.304Z,100738.69
2023-04-11T08:30:19.592Z,100729.19
2023-04-11T08:32:54.195Z,100723.53
2023-04-11T08:35:22.724Z,100728.91
2023-04-11T08:37:51.880Z,100715.06
2023-04-11T08:40:27.140Z,100716.75
2023-04-11T08:43:01.533Z,100713.22
2023-04-11T08:45:31.081Z,100700.38
2023-04-11T08:48:01.336Z,100693.56
2023-04-11T08:50:29.893Z,100693.78
2023-04-11T08:53:03.939Z,100680.63
2023-04-11T08:55:32.668Z,100670.56
2023-04-11T08:58:02.945Z,100684.41
2023-04-11T09:00:32.986Z,100686.09
2023-04-11T09:03:05.390Z,100678.19
2023-04-11T09:05:35.757Z,100683.00
2023-04-11T09:08:07.521Z,100655.44
2023-04-11T09:10:38.055Z,100665.91
2023-04-11T09:13:21.754Z,100669.16
2023-04-11T09:16:06.662Z,100661.25
2023-04-11T09:18:37.795Z,100648.66
2023-04-11T09:21:09.888Z,100637.53
2023-04-11T09:23:38.651Z,100627.63
2023-04-11T09:26:13.160Z,100628.47
2023-04-11T09:28:44.685Z,100620.81
2023-04-11T09:31:14.396Z,100607.22
2023-04-11T09:33:57.151Z,100612.84
2023-04-11T09:36:28.633Z,100611.38
2023-04-11T09:38:57.366Z,100589.72
2023-04-11T09:41:32.998Z,100593.13
2023-04-11T09:44:02.398Z,100585.22
2023-04-11T09:46:30.869Z,100582.22
2023-04-11T09:49:02.746Z,100572.91
2023-04-11T09:53:40.435Z,100560.66
2023-04-11T09:54:24.306Z,100567.59
2023-04-11T09:56:52.801Z,100570.06
2023-04-11T09:59:22.885Z,100568.88
2023-04-11T10:01:52.965Z,100555.34
2023-04-11T10:04:23.289Z,100563.00
2023-04-11T10:07:08.507Z,100562.25
2023-04-11T10:09:46.183Z,100562.25
2023-04-11T10:12:32.093Z,100551.44
2023-04-11T10:15:08.395Z,100558.50
2023-04-11T10:17:37.775Z,100557.66
2023-04-11T10:20:45.136Z,100548.34
2023-04-11T10:23:14.189Z,100542.28
2023-04-11T10:25:53.629Z,100531.84
2023-04-11T10:28:33.269Z,100530.44
2023-04-11T10:31:07.086Z,100514.78
2023-04-11T10:33:36.433Z,100518.16
2023-04-11T10:36:10.726Z,100519.00
2023-04-11T10:38:51.701Z,100501.53
2023-04-11T10:41:31.804Z,100499.56
2023-04-11T10:44:18.614Z,100499.00
2023-04-11T10:46:54.009Z,100486.47
2023-04-11T10:49:48.324Z,100495.97
2023-04-11T10:52:23.159Z,100473.81
2023-04-11T10:54:54.192Z,100479.47
2023-04-11T10:57:23.255Z,100481.75
2023-04-11T11:00:02.537Z,100465.50
2023-04-11T11:02:41.359Z,100465.22
2023-04-11T11:05:24.247Z,100465.75
2023-04-11T11:07:54.992Z,100453.31
2023-04-11T11:10:40.995Z,100447.38
2023-04-11T11:13:10.071Z,100437.34
2023-04-11T11:15:39.099Z,100427.31
2023-04-11T11:18:11.450Z,100423.06
2023-04-11T11:20:40.855Z,100410.66
2023-04-11T11:23:14.004Z,100402.59
2023-04-11T11:25:42.785Z,100406.13
2023-04-11T11:28:11.715Z,100392.56
2023-04-11T11:30:52.148Z,100389.19
2023-04-11T11:33:22.689Z,100372.69
2023-04-11T11:35:55.844Z,100382.75
2023-04-11T11:38:28.529Z,100377.38
2023-04-11T11:40:57.448Z,100366.38
2023-04-11T11:43:27.468Z,100361.34
2023-04-11T11:46:09.593Z,100354.72
2023-04-11T11:48:38.245Z,100346.66
2023-04-11T11:51:07.261Z,100346.66
2023-04-11T11:53:40.839Z,100333.41
2023-04-11T11:56:17.090Z,100330.88
2023-04-11T11:58:46.122Z,100341.00
2023-04-11T12:01:17.166Z,100333.63
2023-04-11T12:03:46.310Z,100329.16
2023-04-11T12:06:16.207Z,100310.50
2023-04-11T12:08:54.055Z,100312.19
2023-04-11T12:11:22.540Z,100303.84
2023-04-11T12:13:54.313Z,100295.78
2023-04-11T12:16:23.628Z,100286.75
2023-04-11T12:18:51.753Z,100286.22
2023-04-11T12:21:19.745Z,100269.25
2023-04-11T12:23:49.198Z,100261.38
2023-04-11T12:26:17.832Z,100248.50
2023-04-11T12:28:45.974Z,100246.50
2023-04-11T12:31:14.929Z,100240.84
2023-04-11T12:33:43.260Z,100235.03
2023-04-11T12:36:14.861Z,100227.13
2023-04-11T12:38:43.226Z,100216.91
2023-04-11T12:41:31.104Z,100196.63
2023-04-11T12:44:02.325Z,100190.94
2023-04-11T12:46:30.559Z,100177.03
2023-04-11T12:48:58.745Z,100171.53
2023-04-11T12:51:27.817Z,100176.28
2023-04-11T12:53:59.095Z,100171.59
2023-04-11T12:56:29.074Z,100162.50
2023-04-11T12:58:57.632Z,100149.00
2023-04-11T13:01:26.793Z,100142.97
2023-04-11T13:03:56.333Z,100135.38
2023-04-11T13:06:39.175Z,100131.69
2023-04-11T13:09:07.979Z,100126.25
2023-04-11T13:11:37.532Z,100124.41
2023-04-11T13:14:05.617Z,100113.69
2023-04-11T13:16:47.089Z,100082.28
2023-04-11T13:19:15.525Z,100083.97
2023-04-11T13:21:44.540Z,100073.53
2023-04-11T13:24:12.830Z,100068.97
2023-04-11T13:26:45.316Z,100062.13
2023-04-11T13:29:21.429Z,100057.31
2023-04-11T13:31:50.314Z,100038.91
2023-04-11T13:34:19.339Z,100035.75
2023-04-11T13:36:49.646Z,100025.16
2023-04-11T13:39:18.625Z,100030.84
2023-04-11T13:41:52.804Z,100021.28
2023-04-11T13:44:21.238Z,100001.28
2023-04-11T13:46:53.588Z,99990.03
2023-04-11T13:49:24.670Z,99980.84
2023-04-11T13:51:52.910Z,99974.31
2023-04-11T13:54:22.895Z,99966.44
2023-04-11T13:56:54.399Z,99961.44
2023-04-11T13:59:22.992Z,99947.19
2023-04-11T14:01:51.092Z,99931.63
2023-04-11T14:04:19.331Z,99913.16
2023-04-11T14:06:47.851Z,99898.06
2023-04-11T14:09:16.117Z,99886.34
2023-04-11T14:11:44.227Z,99863.03
2023-04-11T14:14:14.002Z,99854.63
2023-04-11T14:16:42.367Z,99849.13
2023-04-11T14:19:10.674Z,99829.50
2023-04-11T14:21:38.798Z,99814.56
2023-04-11T14:24:07.365Z,99806.03
2023-04-11T14:26:35.781Z,99790.63
2023-04-11T14:29:04.465Z,99777.38
2023-04-11T14:31:37.230Z,99776.72
2023-04-11T14:34:07.250Z,99761.78
2023-04-11T14:36:35.423Z,99746.69
2023-04-11T14:39:08.272Z,99747.50
2023-04-11T14:41:37.086Z,99729.91
2023-04-11T14:44:11.076Z,99713.13
2023-04-11T14:46:41.167Z,99692.53
2023-04-11T14:49:10.382Z,99683.16
2023-04-11T14:51:38.870Z,99681.47
2023-04-11T14:54:07.556Z,99669.75
2023-04-11T14:56:35.930Z,99659.00
2023-04-11T14:59:04.295Z,99639.94
2023-04-11T15:01:32.442Z,99625.16
2023-04-11T15:04:02.463Z,99604.38
2023-04-11T15:06:31.927Z,99589.28
2023-04-11T15:09:00.559Z,99585.47
2023-04-11T15:11:28.694Z,99554.47
2023-04-11T15:13:57.581Z,99530.00
2023-04-11T15:16:27.734Z,99525.66
2023-04-11T15:18:56.985Z,99511.25
2023-04-11T15:21:27.647Z,99504.38
2023-04-11T15:23:56.719Z,99482.56
2023-04-11T15:26:26.424Z,99472.03
2023-04-11T15:28:56.512Z,99460.81
2023-04-11T15:31:26.934Z,99453.41
2023-04-11T15:34:00.235Z,99447.91
2023-04-11T15:36:31.724Z,99426.09
2023-04-11T15:39:01.116Z,99425.94
2023-04-11T15:41:29.370Z,99434.19
2023-04-11T15:43:57.961Z,99428.63
2023-04-11T15:46:27.284Z,99410.72
2023-04-11T15:48:55.552Z,99387.25
2023-04-11T15:51:24.303Z,99406.34
2023-04-11T15:53:54.780Z,99375.34
2023-04-11T15:56:23.111Z,99381.53
2023-04-11T15:58:51.473Z,99372.50
2023-04-11T16:01:23.075Z,99385.56
2023-04-11T16:03:51.647Z,99365.13
2023-04-11T16:06:21.959Z,99341.66
2023-04-11T16:08:50.960Z,99307.81
2023-04-11T16:11:20.535Z,99320.19
2023-04-11T16:13:48.694Z,99332.94
2023-04-11T16:16:16.970Z,99329.53
2023-04-11T16:18:45.028Z,99321.31
2023-04-11T16:21:14.664Z,99325.50
2023-04-11T16:23:42.982Z,99311.72
2023-04-11T16:26:11.353Z,99319.94
2023-04-11T16:28:41.555Z,99331.50
2023-04-11T16:31:09.677Z,99318.41
2023-04-11T16:33:37.752Z,99298.78
2023-04-11T16:36:06.531Z,99313.38
2023-04-11T16:38:35.180Z,99292.41
2023-04-11T16:41:03.521Z,99310.00
2023-04-11T16:43:31.522Z,99292.88
2023-04-11T16:46:01.269Z,99297.88
2023-04-11T16:48:30.754Z,99325.38
2023-04-11T16:50:59.256Z,99323.03
2023-04-11T16:53:27.326Z,99297.78
2023-04-11T16:55:58.093Z,99321.41
2023-04-11T16:58:27.377Z,99293.88
2023-04-11T17:00:56.068Z,99306.03
2023-04-11T17:03:25.797Z,99326.19
2023-04-11T17:05:54.033Z,99310.31
2023-04-11T17:08:22.309Z,99293.16
2023-04-11T17:10:50.398Z,99298.88
2023-04-11T17:13:19.638Z,99316.97
2023-04-11T17:15:47.756Z,99305.09
2023-04-11T17:18:16.067Z,99294.81
2023-04-11T17:20:46.832Z,99285.59
2023-04-11T17:23:14.946Z,99337.31
2023-04-11T17:25:43.083Z,99338.16
2023-04-11T17:28:11.154Z,99353.28
2023-04-11T17:30:39.669Z,99333.84
2023-04-11T17:33:08.073Z,99331.78
2023-04-11T17:35:36.408Z,99338.00
2023-04-11T17:38:06.138Z,99319.19
2023-04-11T17:40:34.659Z,99346.25
2023-04-11T17:43:04.013Z,99329.66
2023-04-11T17:45:32.368Z,99365.06
2023-04-11T17:48:01.429Z,99384.84
2023-04-11T17:50:29.890Z,99392.91
2023-04-11T17:52:58.197Z,99387.53
2023-04-11T17:55:28.119Z,99402.47
2023-04-11T17:57:56.211Z,99387.28
2023-04-11T18:00:26.386Z,99386.94
2023-04-11T18:02:57.823Z,99394.91
2023-04-11T18:05:29.517Z,99379.19
2023-04-11T18:08:15.583Z,99393.34
2023-04-11T18:14:19.213Z,99391.41
2023-04-11T18:16:49.671Z,99401.91
2023-04-11T18:22:13.793Z,99391.06
2023-04-11T18:24:42.247Z,99370.94
2023-04-11T18:27:11.345Z,99442.00
2023-04-11T18:29:44.106Z,99400.03
2023-04-11T18:32:15.332Z,99411.38
2023-04-11T18:34:43.388Z,99415.88
2023-04-11T18:37:11.437Z,99438.56
2023-04-11T18:39:40.046Z,99425.69
2023-04-11T18:42:08.858Z,99411.31
2023-04-11T18:44:37.838Z,99417.38
2023-04-11T18:47:11.196Z,99407.69
2023-04-11T18:52:38.167Z,99394.63
2023-04-11T18:55:08.252Z,99405.16
2023-04-11T18:57:38.027Z,99398.31
2023-04-11T19:00:17.377Z,99441.38
2023-04-11T19:02:50.909Z,99393.63
2023-04-11T19:05:20.706Z,99407.03
2023-04-11T19:07:50.679Z,99396.66
2023-04-11T19:10:18.704Z,99402.69
2023-04-11T19:12:46.901Z,99390.97
2023-04-11T19:15:15.238Z,99391.63
2023-04-11T19:17:43.568Z,99392.66
2023-04-11T19:20:13.721Z,99390.97
2023-04-11T19:22:42.949Z,99403.19
2023-04-11T19:25:15.498Z,99404.03
2023-04-11T19:27:44.284Z,99431.81
2023-04-11T19:30:14.218Z,99441.72
2023-04-11T19:32:43.693Z,99442.53
2023-04-11T19:35:15.282Z,99425.38
2023-04-11T19:37:47.590Z,99430.25
2023-04-11T19:40:26.103Z,99412.78
2023-04-11T19:42:54.980Z,99431.16
2023-04-11T19:45:23.513Z,99478.25
2023-04-11T19:47:52.475Z,99476.84
2023-04-11T19:50:22.997Z,99486.69
2023-04-11T19:53:00.214Z,99451.88
2023-04-11T19:55:31.867Z,99464.13
2023-04-11T19:58:00.558Z,99427.69
2023-04-11T20:00:37.102Z,99432.25
2023-04-11T20:03:10.976Z,99426.06
2023-04-11T20:05:39.995Z,99435.63
2023-04-11T20:08:11.478Z,99417.09
2023-04-11T20:10:45.832Z,99419.25
2023-04-11T20:13:17.255Z,99424.28
2023-04-11T20:15:48.180Z,99397.50
2023-04-11T20:18:20.769Z,99397.50
2023-04-11T20:20:54.531Z,99406.56
2023-04-11T20:23:24.954Z,99415.91
2023-04-11T20:26:21.983Z,99406.03
2023-04-11T20:29:04.440Z,99376.09
2023-04-11T20:31:37.554Z,99376.28
2023-04-11T20:34:11.946Z,99394.69
2023-04-11T20:36:45.608Z,99406.53
2023-04-11T20:42:32.275Z,99404.84
2023-04-11T20:45:25.234Z,99406.31
2023-04-11T20:48:28.153Z,99421.72
2023-04-11T20:51:18.843Z,99410.00
2023-04-11T20:53:48.906Z,99408.69
2023-04-11T20:56:29.264Z,99393.97
2023-04-11T20:59:03.802Z,99391.97
2023-04-11T21:01:47.798Z,99400.97
2023-04-11T21:04:19.929Z,99418.72
2023-04-11T21:06:48.979Z,99432.44
2023-04-11T21:09:19.170Z,99403.16
2023-04-11T21:11:56.980Z,99403.00
2023-04-11T21:14:33.469Z,99403.00
2023-04-11T21:17:03.119Z,99401.63
2023-04-11T21:19:43.293Z,99387.41
2023-04-11T21:25:04.313Z,99405.13
2023-04-11T21:27:44.054Z,99381.53
2023-04-11T21:31:12.864Z,99397.22
2023-04-11T21:34:23.520Z,99414.72
2023-04-11T21:36:56.761Z,99427.66
2023-04-11T21:42:12.447Z,99420.91
2023-04-11T21:44:46.719Z,99387.53
2023-04-11T21:47:17.344Z,99403.72
2023-04-11T21:49:52.503Z,99399.91
2023-04-11T21:52:28.442Z,99396.75
2023-04-11T21:55:11.439Z,99386.84
2023-04-11T21:57:43.225Z,99443.97
2023-04-11T22:00:14.405Z,99404.88
2023-04-11T22:02:42.980Z,99404.69
2023-04-11T22:05:13.056Z,99471.06
2023-04-11T22:07:52.115Z,99402.88
2023-04-11T22:10:32.405Z,99412.28
2023-04-11T22:13:07.640Z,99411.44
2023-04-11T22:15:38.638Z,99418.63
2023-04-11T22:18:09.697Z,99409.06
2023-04-11T22:20:45.662Z,99403.88
2023-04-11T22:23:18.866Z,99443.16
2023-04-11T22:25:53.555Z,99432.31
2023-04-11T22:28:24.741Z,99431.63
2023-04-11T22:30:57.928Z,99446.00
2023-04-11T22:33:29.702Z,99458.19
2023-04-11T22:36:00.849Z,99462.28
2023-04-11T22:38:32.190Z,99480.75
2023-04-11T22:41:02.039Z,99441.19
2023-04-11T22:43:33.039Z,99413.59
2023-04-11T22:46:04.617Z,99425.47
2023-04-11T22:48:37.486Z,99410.84
2023-04-11T22:51:07.653Z,99417.09
2023-04-11T22:53:42.607Z,99405.28
2023-04-11T22:56:13.060Z,99403.56
2023-04-11T22:58:43.473Z,99415.13
2023-04-11T23:01:16.022Z,99407.56
2023-04-11T23:03:45.618Z,99399.00
2023-04-11T23:06:18.429Z,99412.41
2023-04-11T23:08:55.531Z,99386.41
2023-04-11T23:11:24.198Z,99400.66
2023-04-11T23:13:55.238Z,99399.38
2023-04-11T23:16:24.008Z,99396.94
2023-04-11T23:18:55.486Z,99434.03
2023-04-11T23:21:25.714Z,99417.22
2023-04-11T23:24:10.586Z,99401.84
2023-04-11T23:26:48.642Z,99395.59
2023-04-11T23:29:34.220Z,99403.25
2023-04-11T23:32:07.206Z,99408.22
2023-04-11T23:34:40.359Z,99401.97
2023-04-11T23:37:08.872Z,99410.59
2023-04-11T23:45:49.974Z,99398.97
2023-04-11T23:48:19.315Z,99379.13
2023-04-11T23:50:47.269Z,99383.44
2023-04-11T23:53:16.068Z,99372.66
2023-04-11T23:55:44.151Z,99388.88
2023-04-11T23:58:12.093Z,99381.06
